Stone, Indiana
Current Conditions -  °F | °C
As of 11:19 AM on Monday 24 Nov 2014 (Local Time) from KMIE Reporting Station
Overcast Overcast  
Wind Chill: 35°   Ceiling: 1500
Heat Index: 44°   Visibility: 10mi
Dew Point: 38°   Wind: 25mph
Humidity: 79%   Direction: 240°WSW
Pressure: 29.4"   Gusts: 43mph
Location:  40.1634°N, 85.045°W
Report Text: KMIE 241619Z 24022G37KT 10SM OVC015 07/03 A2940 RMK AO2 PK WND 24037/1614 PRESRR T00670033
Loading
Personal Weather Stations






























Interactive Weather Map New forecast layout! Learn more

10-Day Weather Forecast

Advertisements
Track Severe Weather on mobile